Time;durP1;ratioP1;P1;durP2;ratioP2;P2;SDS_P1;SDS_P2;PMS_P1;PMS_P2;Temp;Humidity;BMP_temperature;BMP_pressure;BME280_temperature;BME280_humidity;BME280_pressure;Samples;Min_cycle;Max_cycle;Signal;HPM_P1;HPM_P2
2022/01/04 00:00:13;;;;;;;32.13;18.98;;;-6.30;93.90;;;;;;4996231;28;20030;-79
2022/01/04 00:02:40;;;;;;;35.35;19.90;;;-6.30;93.90;;;;;;4996417;28;20129;-79
2022/01/04 00:05:06;;;;;;;30.75;18.48;;;-6.30;93.90;;;;;;4995974;28;20384;-80
2022/01/04 00:07:33;;;;;;;30.55;18.48;;;-6.30;94.00;;;;;;4996103;28;20038;-79
2022/01/04 00:10:00;;;;;;;34.00;18.88;;;-6.30;94.00;;;;;;4995889;28;20050;-79
2022/01/04 00:15:11;;;;;;;26.38;16.25;;;-6.30;94.00;;;;;;4994649;28;20050;-79
2022/01/04 00:17:38;;;;;;;31.77;19.67;;;-6.30;94.00;;;;;;4995665;28;20027;-80
2022/01/04 00:20:05;;;;;;;30.33;17.83;;;-6.30;94.00;;;;;;4995767;28;20422;-79
2022/01/04 00:22:31;;;;;;;29.88;17.52;;;-6.20;94.00;;;;;;4995817;28;20039;-80
2022/01/04 00:24:57;;;;;;;33.20;20.20;;;-6.20;94.00;;;;;;4995803;28;20029;-80
2022/01/04 00:27:23;;;;;;;31.27;16.77;;;-6.20;94.10;;;;;;4995725;28;20601;-79
2022/01/04 00:29:49;;;;;;;34.90;18.05;;;-6.10;94.10;;;;;;4994345;28;20501;-79
2022/01/04 00:32:15;;;;;;;37.17;20.75;;;-6.10;94.00;;;;;;4995221;28;20434;-79
2022/01/04 00:34:41;;;;;;;39.78;20.63;;;-6.10;93.90;;;;;;4995393;28;20019;-78
2022/01/04 00:37:07;;;;;;;37.92;19.85;;;-6.10;93.90;;;;;;4997354;28;20026;-81
2022/01/04 00:39:33;;;;;;;34.60;21.63;;;-6.10;93.90;;;;;;4995272;28;20122;-80
2022/01/04 00:41:59;;;;;;;26.90;16.80;;;-6.10;93.90;;;;;;4994919;28;20042;-79
2022/01/04 00:44:26;;;;;;;39.97;19.52;;;-6.10;93.90;;;;;;4995265;28;20045;-80
2022/01/04 00:46:52;;;;;;;37.10;21.08;;;-6.10;94.00;;;;;;4995192;28;20023;-79
2022/01/04 00:49:18;;;;;;;41.42;22.75;;;-6.10;93.90;;;;;;4996616;28;20030;-79
2022/01/04 00:51:47;;;;;;;36.70;22.02;;;-6.10;93.90;;;;;;4997329;28;20088;-80
2022/01/04 00:54:13;;;;;;;37.20;21.67;;;-6.10;93.90;;;;;;4994082;28;20125;-79
2022/01/04 00:56:40;;;;;;;42.40;23.60;;;-6.10;93.90;;;;;;4995080;28;20033;-79
2022/01/04 00:59:06;;;;;;;37.55;23.35;;;-6.00;93.80;;;;;;4993690;28;20057;-80
2022/01/04 01:01:34;;;;;;;36.58;23.35;;;-6.00;93.70;;;;;;4996086;28;20117;-79
2022/01/04 01:04:00;;;;;;;;;;;-6.00;93.70;;;;;;4998841;28;20030;-80
2022/01/04 01:06:26;;;;;;;40.40;21.67;;;-6.00;93.80;;;;;;5014565;28;19961;-79
2022/01/04 01:08:52;;;;;;;45.23;24.87;;;-5.90;93.80;;;;;;5000254;28;20030;-80
2022/01/04 01:11:19;;;;;;;53.72;27.70;;;-5.90;93.90;;;;;;4996937;28;20745;-80
2022/01/04 01:13:45;;;;;;;34.03;21.92;;;-5.90;93.80;;;;;;4995416;28;20336;-78
2022/01/04 01:16:12;;;;;;;48.63;26.40;;;-5.90;93.60;;;;;;4994846;28;20101;-79
2022/01/04 01:18:38;;;;;;;46.30;24.58;;;-5.90;93.40;;;;;;4995116;28;20022;-79
2022/01/04 01:21:05;;;;;;;45.58;25.20;;;-6.00;93.50;;;;;;4995033;28;20066;-78
2022/01/04 01:23:32;;;;;;;43.17;24.38;;;-5.90;93.60;;;;;;4994992;28;20023;-81
2022/01/04 01:25:59;;;;;;;41.03;22.35;;;-5.90;93.70;;;;;;4995252;28;20508;-82
2022/01/04 01:28:25;;;;;;;39.87;23.50;;;-5.80;93.70;;;;;;4999284;28;20034;-79
2022/01/04 01:30:52;;;;;;;38.50;22.65;;;-5.80;93.70;;;;;;5001301;28;20535;-79
2022/01/04 01:33:18;;;;;;;41.42;23.52;;;-5.80;93.50;;;;;;4995997;28;20053;-79
2022/01/04 01:35:44;;;;;;;38.10;22.17;;;-5.80;93.50;;;;;;4994265;28;20038;-80
2022/01/04 01:38:11;;;;;;;36.15;20.98;;;-5.80;93.50;;;;;;5009604;28;20026;-80
2022/01/04 01:40:38;;;;;;;36.17;21.55;;;-5.80;93.60;;;;;;4992721;28;20054;-80
2022/01/04 01:43:04;;;;;;;36.87;23.07;;;-5.80;93.50;;;;;;4993994;28;20048;-79
2022/01/04 01:45:30;;;;;;;31.85;18.33;;;-5.80;93.20;;;;;;4993864;28;20504;-79
2022/01/04 01:47:56;;;;;;;45.47;20.90;;;-5.90;93.00;;;;;;4992469;28;20069;-79
2022/01/04 01:50:22;;;;;;;25.98;14.27;;;-6.00;93.10;;;;;;4993942;28;20057;-79
2022/01/04 01:52:50;;;;;;;35.05;19.42;;;-6.00;93.10;;;;;;4993727;28;20057;-81
2022/01/04 01:55:20;;;;;;;31.08;20.38;;;-6.10;93.10;;;;;;4993747;28;20030;-79
2022/01/04 01:57:48;;;;;;;33.80;19.45;;;-6.20;93.10;;;;;;4993559;28;20033;-80
2022/01/04 02:00:17;;;;;;;32.58;19.40;;;-6.20;93.20;;;;;;4992439;28;20558;-79
2022/01/04 02:02:43;;;;;;;34.30;17.08;;;-6.10;93.40;;;;;;4992239;28;20458;-79
2022/01/04 02:05:09;;;;;;;34.90;19.85;;;-6.10;93.30;;;;;;4993384;28;20145;-80
2022/01/04 02:07:37;;;;;;;29.80;17.73;;;-6.10;93.30;;;;;;4993510;28;20502;-78
2022/01/04 02:10:05;;;;;;;33.25;18.00;;;-6.20;93.20;;;;;;4993312;28;20406;-78
2022/01/04 02:12:32;;;;;;;32.60;18.13;;;-6.20;93.30;;;;;;4993361;28;20034;-82
2022/01/04 02:14:59;;;;;;;28.25;15.85;;;-6.20;93.40;;;;;;4993699;28;20041;-78
2022/01/04 02:17:26;;;;;;;23.13;15.67;;;-6.20;93.40;;;;;;4993451;28;20033;-81
2022/01/04 02:19:56;;;;;;;30.35;19.05;;;-6.10;93.40;;;;;;4993510;28;20019;-80
2022/01/04 02:22:22;;;;;;;27.45;17.13;;;-6.10;93.30;;;;;;4993155;28;20443;-79
2022/01/04 02:24:48;;;;;;;29.67;15.13;;;-6.20;93.30;;;;;;4992082;28;20085;-79
2022/01/04 02:27:15;;;;;;;20.58;13.27;;;-6.20;93.30;;;;;;4993361;28;20507;-80
2022/01/04 02:29:41;;;;;;;23.75;11.52;;;-6.30;93.40;;;;;;4993225;28;20015;-79
2022/01/04 02:32:07;;;;;;;21.08;11.98;;;-6.30;93.50;;;;;;4993179;28;20037;-79
2022/01/04 02:34:33;;;;;;;25.73;15.95;;;-6.20;93.60;;;;;;4993226;28;20050;-80
2022/01/04 02:36:59;;;;;;;24.58;14.30;;;-6.20;93.50;;;;;;4993190;28;20034;-80
2022/01/04 02:39:25;;;;;;;28.23;17.45;;;-6.20;93.60;;;;;;4992812;28;20575;-79
2022/01/04 02:41:51;;;;;;;22.73;13.80;;;-6.20;93.50;;;;;;5008213;28;20054;-79
2022/01/04 02:44:17;;;;;;;26.63;15.93;;;-6.20;93.40;;;;;;4991871;28;20049;-79
2022/01/04 02:46:43;;;;;;;25.73;15.07;;;-6.10;93.60;;;;;;4992994;28;20062;-79
2022/01/04 02:49:08;;;;;;;28.20;16.00;;;-6.10;93.60;;;;;;4992175;28;20034;-79
2022/01/04 02:51:34;;;;;;;21.23;15.57;;;-6.10;93.60;;;;;;4993579;28;20018;-79
2022/01/04 02:54:00;;;;;;;24.80;15.15;;;-6.00;93.60;;;;;;4994835;28;20029;-81
2022/01/04 02:56:26;;;;;;;24.55;14.88;;;-5.90;93.60;;;;;;4998238;28;20026;-77
2022/01/04 02:58:52;;;;;;;22.52;13.73;;;-5.90;93.50;;;;;;5011499;28;20106;-80
2022/01/04 03:01:18;;;;;;;21.65;12.30;;;-5.90;93.40;;;;;;4997897;28;20034;-78
2022/01/04 03:03:43;;;;;;;25.48;14.18;;;-5.90;93.40;;;;;;5004628;28;20033;-79
2022/01/04 03:06:18;;;;;;;25.65;14.85;;;-5.90;93.40;;;;;;4993267;28;20494;-81
2022/01/04 03:08:44;;;;;;;22.90;14.27;;;-5.90;93.70;;;;;;4992964;28;20099;-77
2022/01/04 03:11:09;;;;;;;25.77;15.63;;;-5.80;93.60;;;;;;4991907;28;20126;-78
2022/01/04 03:13:36;;;;;;;28.73;15.50;;;-5.80;93.50;;;;;;4994226;28;20034;-79
2022/01/04 03:16:02;;;;;;;25.00;14.30;;;-5.80;93.30;;;;;;4993457;28;20443;-78
2022/01/04 03:18:29;;;;;;;29.15;19.85;;;-5.80;93.20;;;;;;4993309;28;20058;-79
2022/01/04 03:20:55;;;;;;;28.83;14.65;;;-5.90;93.00;;;;;;4992942;28;20030;-78
2022/01/04 03:23:21;;;;;;;22.85;15.10;;;-5.90;92.90;;;;;;4993214;28;20415;-76
2022/01/04 03:25:46;;;;;;;21.80;13.38;;;-5.90;93.00;;;;;;4993071;28;20503;-78
2022/01/04 03:28:13;;;;;;;26.42;14.65;;;-5.90;93.10;;;;;;5000729;28;20227;-78
2022/01/04 03:30:39;;;;;;;22.85;13.85;;;-5.90;93.10;;;;;;5002501;28;20026;-80
2022/01/04 03:33:05;;;;;;;25.27;14.90;;;-5.90;93.20;;;;;;4996548;28;20022;-79
2022/01/04 03:35:31;;;;;;;25.60;15.13;;;-5.90;93.10;;;;;;4996254;28;20032;-80
2022/01/04 03:37:57;;;;;;;24.00;14.82;;;-5.90;93.00;;;;;;5014431;28;20027;-78
2022/01/04 03:40:23;;;;;;;23.40;13.90;;;-5.90;93.00;;;;;;4996612;28;20104;-80
2022/01/04 03:42:48;;;;;;;24.02;14.38;;;-5.90;93.10;;;;;;4995289;28;20045;-78
2022/01/04 03:45:14;;;;;;;28.10;15.90;;;-5.90;93.20;;;;;;4993833;28;20379;-79
2022/01/04 03:47:40;;;;;;;25.45;14.20;;;-5.90;93.10;;;;;;4994426;28;20048;-78
2022/01/04 03:50:06;;;;;;;25.60;13.00;;;-5.90;93.20;;;;;;4994138;28;20050;-79
2022/01/04 03:52:35;;;;;;;25.98;14.43;;;-5.90;93.20;;;;;;4997047;28;20033;-80
2022/01/04 03:55:02;;;;;;;26.75;15.80;;;-5.90;93.20;;;;;;4997706;28;20101;-79
2022/01/04 03:57:28;;;;;;;27.35;16.65;;;-5.90;93.10;;;;;;4997815;28;20368;-78
2022/01/04 03:59:54;;;;;;;24.15;13.88;;;-5.90;93.30;;;;;;4998994;28;20026;-78
2022/01/04 04:02:19;;;;;;;26.88;15.75;;;-5.90;93.10;;;;;;4997374;28;20085;-78
2022/01/04 04:04:45;;;;;;;24.65;14.20;;;-6.00;93.20;;;;;;4998728;28;20029;-79
2022/01/04 04:07:11;;;;;;;31.48;14.40;;;-6.00;93.20;;;;;;4997630;28;20022;-79
2022/01/04 04:09:37;;;;;;;25.70;16.73;;;-6.00;93.30;;;;;;4996536;28;20034;-80
2022/01/04 04:12:04;;;;;;;29.02;17.00;;;-6.10;93.20;;;;;;4997894;28;20030;-80
2022/01/04 04:14:30;;;;;;;26.05;16.05;;;-6.10;93.30;;;;;;4995402;28;20018;-79
2022/01/04 04:16:56;;;;;;;30.33;15.63;;;-6.00;93.50;;;;;;4998867;28;20026;-79
2022/01/04 04:19:21;;;;;;;24.58;15.63;;;-6.00;93.60;;;;;;5000725;28;20053;-78
2022/01/04 04:21:47;;;;;;;31.13;17.27;;;-5.90;93.70;;;;;;4996696;28;20510;-78
2022/01/04 04:24:13;;;;;;;25.08;15.85;;;-5.80;93.70;;;;;;4996614;28;20487;-78
2022/01/04 04:26:39;;;;;;;25.13;15.23;;;-5.80;93.70;;;;;;4995641;28;20026;-79
2022/01/04 04:29:04;;;;;;;25.48;15.10;;;-5.70;93.50;;;;;;4995114;28;20023;-80
2022/01/04 04:31:30;;;;;;;30.08;15.70;;;-5.70;93.30;;;;;;4995161;28;20029;-79
2022/01/04 04:33:56;;;;;;;29.25;16.92;;;-5.70;93.30;;;;;;4995264;28;20030;-79
2022/01/04 04:36:22;;;;;;;28.50;16.15;;;-5.80;93.30;;;;;;4995429;28;20026;-80
2022/01/04 04:38:47;;;;;;;31.40;16.23;;;-5.80;93.10;;;;;;4995506;28;20451;-79
2022/01/04 04:41:13;;;;;;;28.25;13.65;;;-5.80;93.00;;;;;;4995384;28;20089;-79
2022/01/04 04:43:39;;;;;;;25.70;13.73;;;-5.90;93.10;;;;;;4993944;28;20019;-80
2022/01/04 04:46:05;;;;;;;25.60;16.10;;;-5.90;93.30;;;;;;4996769;28;20038;-83
2022/01/04 04:48:31;;;;;;;29.73;14.68;;;-5.80;93.40;;;;;;5007648;28;20030;-80
2022/01/04 04:50:57;;;;;;;27.40;16.30;;;-5.80;93.50;;;;;;5001219;28;20471;-77
2022/01/04 04:53:23;;;;;;;29.48;16.92;;;-5.80;93.50;;;;;;4997805;28;20065;-80
2022/01/04 04:55:48;;;;;;;23.98;14.98;;;-5.80;93.30;;;;;;4998188;28;20369;-79
2022/01/04 04:58:14;;;;;;;28.10;15.98;;;-5.80;93.10;;;;;;4996196;28;20029;-78
2022/01/04 05:00:40;;;;;;;27.02;16.70;;;-5.80;93.00;;;;;;4995477;28;20026;-80
2022/01/04 05:03:06;;;;;;;28.27;16.77;;;-5.90;93.10;;;;;;4995536;28;20042;-79
2022/01/04 05:05:31;;;;;;;26.42;16.48;;;-5.90;93.20;;;;;;4994730;28;20081;-80
2022/01/04 05:07:57;;;;;;;30.15;14.75;;;-5.90;93.20;;;;;;4993061;28;20034;-81
2022/01/04 05:10:23;;;;;;;24.65;14.77;;;-5.90;93.30;;;;;;4994524;28;20033;-82
2022/01/04 05:12:49;;;;;;;24.73;15.50;;;-5.90;93.20;;;;;;4994761;28;20027;-80
2022/01/04 05:15:15;;;;;;;21.80;12.85;;;-6.00;93.10;;;;;;4994994;28;20089;-81
2022/01/04 05:17:40;;;;;;;24.45;14.77;;;-6.00;93.20;;;;;;4995326;28;20113;-81
2022/01/04 05:20:07;;;;;;;22.35;14.10;;;-6.10;93.30;;;;;;4996448;28;20459;-80
2022/01/04 05:22:33;;;;;;;20.67;15.10;;;-6.10;93.40;;;;;;4999089;28;20753;-83
2022/01/04 05:24:58;;;;;;;26.63;15.45;;;-6.00;93.50;;;;;;4996378;28;20022;-82
2022/01/04 05:27:24;;;;;;;24.88;14.27;;;-6.00;93.60;;;;;;4990017;28;20063;-81
2022/01/04 05:29:50;;;;;;;28.38;16.42;;;-6.00;93.60;;;;;;4975786;28;20023;-78
2022/01/04 05:32:16;;;;;;;36.97;16.02;;;-5.90;93.60;;;;;;4976296;28;20026;-79
2022/01/04 05:34:42;;;;;;;29.52;16.08;;;-5.90;93.60;;;;;;4980369;28;20027;-82
2022/01/04 05:37:08;;;;;;;25.60;15.82;;;-5.90;93.70;;;;;;4979635;28;20063;-82
2022/01/04 05:39:34;;;;;;;29.70;16.63;;;-5.80;93.70;;;;;;4984735;28;20058;-87
2022/01/04 05:42:00;;;;;;;26.40;16.57;;;-5.80;93.60;;;;;;4988731;28;20450;-79
2022/01/04 05:44:26;;;;;;;33.92;19.02;;;-5.80;93.60;;;;;;4996495;28;20026;-81
2022/01/04 05:46:52;;;;;;;24.23;13.98;;;-5.70;93.60;;;;;;5002407;28;20026;-83
2022/01/04 05:49:18;;;;;;;20.38;13.07;;;-5.70;93.60;;;;;;5005290;28;20022;-80
2022/01/04 05:51:44;;;;;;;25.85;14.50;;;-5.70;93.40;;;;;;4993267;28;20033;-83
2022/01/04 05:54:10;;;;;;;23.73;13.88;;;-5.70;93.40;;;;;;4983961;28;20073;-81
2022/01/04 05:56:35;;;;;;;25.05;13.20;;;-5.60;93.40;;;;;;4997984;28;20026;-91
2022/01/04 05:59:01;;;;;;;23.02;14.27;;;-5.60;93.40;;;;;;4997569;28;20019;-84
2022/01/04 06:01:27;;;;;;;22.50;13.68;;;-5.60;93.40;;;;;;4994594;28;20035;-85
2022/01/04 06:03:53;;;;;;;26.60;16.63;;;-5.50;93.30;;;;;;4996338;28;20030;-84
2022/01/04 06:06:19;;;;;;;26.63;15.82;;;-5.50;93.30;;;;;;4994729;28;20081;-85
2022/01/04 06:08:45;;;;;;;29.60;16.30;;;-5.50;93.10;;;;;;4983553;28;20431;-87
2022/01/04 06:11:59;;;;;;;31.77;18.60;;;-5.40;93.10;;;;;;4998924;28;20029;-85
2022/01/04 06:16:42;;;;;;;28.42;17.15;;;-5.40;92.90;;;;;;4997602;28;20046;-85
2022/01/04 06:19:08;;;;;;;34.92;20.73;;;-5.40;93.00;;;;;;4995614;28;20015;-86
2022/01/04 06:21:34;;;;;;;33.33;19.90;;;-5.40;92.90;;;;;;4999082;28;20034;-85
2022/01/04 06:23:59;;;;;;;32.80;18.38;;;-5.30;92.90;;;;;;5005326;28;20007;-90
2022/01/04 06:26:27;;;;;;;30.13;19.02;;;-5.30;92.80;;;;;;5002433;28;20033;-89
2022/01/04 06:28:53;;;;;;;35.05;17.60;;;-5.30;92.80;;;;;;4993784;28;20408;-85
2022/01/04 06:31:19;;;;;;;30.58;19.02;;;-5.30;92.90;;;;;;4993378;28;20027;-88
2022/01/04 06:33:45;;;;;;;32.42;18.77;;;-5.20;92.80;;;;;;5002776;28;20022;-86
2022/01/04 06:36:11;;;;;;;26.38;16.65;;;-5.20;92.80;;;;;;5012191;28;20026;-88
2022/01/04 06:38:37;;;;;;;30.00;18.83;;;-5.20;92.70;;;;;;5008596;28;20022;-87
2022/01/04 06:41:02;;;;;;;31.95;16.95;;;-5.20;92.80;;;;;;4997835;28;20047;-88
2022/01/04 06:43:30;;;;;;;29.25;16.48;;;-5.20;92.80;;;;;;4998691;28;20065;-91
2022/01/04 06:45:56;;;;;;;26.92;17.20;;;-5.20;92.70;;;;;;4996864;28;20041;-87
2022/01/04 06:48:22;;;;;;;29.20;15.70;;;-5.20;92.80;;;;;;5006153;28;20031;-91
2022/01/04 06:50:48;;;;;;;22.25;14.02;;;-5.20;92.80;;;;;;5002204;28;20038;-89
2022/01/04 06:53:14;;;;;;;29.73;15.73;;;-5.10;92.80;;;;;;5015789;28;20080;-88
2022/01/04 06:55:40;;;;;;;29.58;16.00;;;-5.10;92.70;;;;;;5019011;28;20116;-89
2022/01/04 06:58:11;;;;;;;30.13;15.82;;;-5.10;92.70;;;;;;5005561;28;20045;-90
2022/01/04 07:00:37;;;;;;;23.20;13.18;;;-5.10;92.70;;;;;;4987788;28;20027;-88
2022/01/04 07:03:03;;;;;;;21.90;13.80;;;-5.00;92.60;;;;;;4995515;28;20080;-86
2022/01/04 07:05:29;;;;;;;24.35;13.93;;;-5.00;92.40;;;;;;4998151;28;20030;-84
2022/01/04 07:07:55;;;;;;;27.40;15.38;;;-5.10;92.50;;;;;;5002857;28;20037;-86
2022/01/04 07:10:21;;;;;;;26.65;15.27;;;-5.10;92.60;;;;;;5016528;28;20025;-88
2022/01/04 07:12:47;;;;;;;25.40;15.20;;;-5.10;92.60;;;;;;4982008;28;20108;-89
2022/01/04 07:15:13;;;;;;;29.80;15.10;;;-5.10;92.60;;;;;;4995365;28;20042;-89
2022/01/04 07:17:41;;;;;;;26.95;16.15;;;-5.20;92.50;;;;;;4994545;28;20057;-85
2022/01/04 07:20:08;;;;;;;29.27;15.75;;;-5.30;92.60;;;;;;4989508;28;20066;-86
2022/01/04 07:22:34;;;;;;;28.20;16.23;;;-5.20;92.80;;;;;;4974914;28;20034;-88
2022/01/04 07:24:59;;;;;;;28.08;18.27;;;-5.10;92.80;;;;;;4988762;28;20108;-85
2022/01/04 07:27:25;;;;;;;28.10;16.70;;;-5.10;92.70;;;;;;5002330;28;20046;-84
2022/01/04 07:29:51;;;;;;;32.15;17.10;;;-5.10;92.60;;;;;;4992312;28;20423;-85
2022/01/04 07:32:17;;;;;;;29.55;18.38;;;-5.00;92.70;;;;;;4983601;28;20027;-84
2022/01/04 07:34:42;;;;;;;34.25;17.25;;;-5.00;92.50;;;;;;5011392;28;20038;-82
2022/01/04 07:37:21;;;;;;;30.90;15.93;;;-5.00;92.50;;;;;;5013116;28;20010;-88
2022/01/04 07:39:52;;;;;;;25.27;14.52;;;-5.00;92.50;;;;;;4994132;28;20046;-86
2022/01/04 07:42:18;;;;;;;29.88;16.42;;;-5.00;92.50;;;;;;4999694;28;20031;-85
2022/01/04 07:44:44;;;;;;;36.42;18.50;;;-5.10;92.50;;;;;;5015033;28;20100;-86
2022/01/04 07:47:09;;;;;;;28.10;16.42;;;-5.10;92.60;;;;;;4998726;28;20023;-86
2022/01/04 07:49:35;;;;;;;34.90;18.10;;;-5.10;92.60;;;;;;5000355;28;20049;-85
2022/01/04 07:52:23;;;;;;;25.77;18.17;;;-5.10;92.60;;;;;;5017422;28;20085;-87
2022/01/04 07:54:50;;;;;;;28.88;15.73;;;-5.00;92.60;;;;;;5021785;28;20050;-92
2022/01/04 07:57:18;;;;;;;27.08;15.20;;;-5.00;92.60;;;;;;5021005;28;20014;-85
2022/01/04 08:00:01;;;;;;;29.10;17.35;;;-5.10;92.40;;;;;;5005082;28;20082;-87
2022/01/04 08:02:50;;;;;;;29.17;16.95;;;-5.00;92.50;;;;;;5018602;28;20038;-87
2022/01/04 08:05:17;;;;;;;38.25;20.70;;;-5.00;92.50;;;;;;5005403;28;20030;-85
2022/01/04 08:07:43;;;;;;;33.57;18.27;;;-5.00;92.50;;;;;;5006577;28;20058;-85
2022/01/04 08:10:10;;;;;;;34.05;18.92;;;-5.00;92.40;;;;;;5001260;28;20030;-89
2022/01/04 08:12:36;;;;;;;27.15;16.30;;;-5.10;92.50;;;;;;4998428;28;20014;-88
2022/01/04 08:15:06;;;;;;;36.13;18.95;;;-5.10;92.30;;;;;;5003078;28;20037;-89
2022/01/04 08:17:32;;;;;;;42.63;18.73;;;-5.30;92.50;;;;;;4975120;28;20149;-90
2022/01/04 08:19:59;;;;;;;33.88;18.25;;;-5.30;92.50;;;;;;4997841;28;20058;-89
2022/01/04 08:22:31;;;;;;;25.67;16.70;;;-5.40;92.70;;;;;;5001105;28;20036;-87
2022/01/04 08:25:02;;;;;;;31.63;18.45;;;-5.30;92.90;;;;;;5001317;28;20518;-88
2022/01/04 08:27:29;;;;;;;37.42;19.48;;;-5.50;92.70;;;;;;5000630;28;20019;-88
2022/01/04 08:29:55;;;;;;;28.48;16.00;;;-5.70;92.70;;;;;;5013745;28;20022;-85
2022/01/04 08:32:21;;;;;;;37.45;16.15;;;-5.80;93.10;;;;;;5015919;28;20045;-84
2022/01/04 08:34:47;;;;;;;35.35;18.55;;;-5.80;93.30;;;;;;4998232;28;20046;-87
2022/01/04 08:37:14;;;;;;;36.78;18.25;;;-5.80;93.30;;;;;;4987463;28;20035;-87
2022/01/04 08:39:53;;;;;;;36.17;19.35;;;-5.70;93.50;;;;;;4993784;28;20396;-86
2022/01/04 08:42:25;;;;;;;45.83;20.77;;;-5.80;93.30;;;;;;4997041;28;20041;-91
2022/01/04 08:44:54;;;;;;;40.58;20.63;;;-5.80;93.50;;;;;;4997092;28;20026;-82
2022/01/04 08:47:26;;;;;;;28.02;14.48;;;-5.60;93.70;;;;;;4997426;28;20034;-90
2022/01/04 08:49:54;;;;;;;39.08;18.80;;;-5.50;93.50;;;;;;5008599;28;20006;-92
2022/01/04 08:52:20;;;;;;;37.83;17.23;;;-5.60;93.20;;;;;;5001568;28;20031;-89
2022/01/04 08:54:47;;;;;;;40.08;21.13;;;-5.50;93.30;;;;;;5007467;28;20026;-89
2022/01/04 08:57:17;;;;;;;40.37;21.60;;;-5.60;93.20;;;;;;5008669;28;20094;-92
2022/01/04 09:00:05;;;;;;;42.70;21.45;;;-5.60;93.40;;;;;;5011500;28;20344;-86
2022/01/04 09:02:33;;;;;;;37.60;19.08;;;-5.50;93.50;;;;;;5010306;28;20038;-85
2022/01/04 09:05:13;;;;;;;40.63;19.08;;;-5.50;93.20;;;;;;5007380;28;20022;-93
2022/01/04 09:07:59;;;;;;;37.63;19.75;;;-5.40;93.50;;;;;;5001708;28;20053;-91
2022/01/04 09:10:29;;;;;;;34.67;19.67;;;-5.30;93.50;;;;;;5017089;28;20027;-89
2022/01/04 09:13:25;;;;;;;36.33;20.50;;;-5.10;93.30;;;;;;4992919;28;20106;-86
2022/01/04 09:21:28;;;;;;;41.45;20.95;;;-4.80;92.90;;;;;;5000442;28;20040;-85
2022/01/04 09:23:56;;;;;;;42.50;21.23;;;-4.70;92.90;;;;;;4995471;28;20062;-85
2022/01/04 09:26:26;;;;;;;39.22;22.23;;;-4.60;92.70;;;;;;4989660;28;20598;-85
2022/01/04 09:28:54;;;;;;;32.67;19.27;;;-4.60;92.60;;;;;;4991326;28;20402;-85
2022/01/04 09:31:21;;;;;;;41.38;22.60;;;-4.50;92.40;;;;;;4995444;28;20022;-83
2022/01/04 09:33:47;;;;;;;37.80;18.38;;;-4.60;92.10;;;;;;4997943;28;20117;-84
2022/01/04 09:36:13;;;;;;;35.38;20.77;;;-4.60;92.20;;;;;;5000266;28;20136;-86
2022/01/04 09:38:39;;;;;;;44.88;21.85;;;-4.70;92.00;;;;;;4995997;28;20030;-85
2022/01/04 09:41:05;;;;;;;42.88;20.00;;;-4.80;91.80;;;;;;4976359;28;20047;-88
2022/01/04 09:43:31;;;;;;;41.17;25.30;;;-4.90;92.00;;;;;;4995212;28;20030;-86
2022/01/04 09:46:00;;;;;;;39.15;20.30;;;-4.80;92.10;;;;;;4998749;28;20023;-85
2022/01/04 09:48:27;;;;;;;39.72;18.35;;;-4.70;92.20;;;;;;5001800;28;20387;-84
2022/01/04 09:50:59;;;;;;;39.53;19.67;;;-4.60;92.10;;;;;;4995393;28;20036;-86
2022/01/04 09:53:34;;;;;;;37.55;22.10;;;-4.50;92.00;;;;;;4988395;28;20030;-86
2022/01/04 09:56:06;;;;;;;44.88;25.55;;;-4.40;92.00;;;;;;4996355;28;20030;-86
2022/01/04 09:58:33;;;;;;;49.28;25.98;;;-4.30;91.80;;;;;;4996745;28;20022;-88
2022/01/04 10:01:00;;;;;;;51.17;27.57;;;-4.20;91.50;;;;;;4970409;28;20448;-90
2022/01/04 10:03:51;;;;;;;54.67;27.55;;;-4.30;91.20;;;;;;5015329;28;20018;-89
2022/01/04 10:06:19;;;;;;;49.60;24.92;;;-4.50;91.00;;;;;;5017198;28;20030;-86
2022/01/04 10:08:52;;;;;;;49.72;25.90;;;-4.50;91.20;;;;;;5009092;28;20076;-84
2022/01/04 10:11:34;;;;;;;53.67;28.98;;;-4.50;91.20;;;;;;5004847;28;20011;-89
2022/01/04 10:14:22;;;;;;;59.83;30.67;;;-4.40;91.20;;;;;;5000217;28;20029;-88
2022/01/04 10:17:00;;;;;;;78.75;37.72;;;-4.30;91.10;;;;;;5000674;28;20053;-87
2022/01/04 10:19:37;;;;;;;68.68;34.90;;;-4.20;91.10;;;;;;4995127;28;20136;-86
2022/01/04 10:22:19;;;;;;;82.95;40.08;;;-4.20;90.80;;;;;;5013826;28;20038;-87
2022/01/04 10:25:09;;;;;;;60.80;30.33;;;-4.40;90.60;;;;;;4992643;28;20037;-89
2022/01/04 10:27:48;;;;;;;63.60;33.47;;;-4.40;90.70;;;;;;5008883;28;20113;-88
2022/01/04 10:30:56;;;;;;;58.22;29.48;;;-4.50;90.80;;;;;;5014679;28;20022;-89
2022/01/04 10:33:25;;;;;;;73.80;33.65;;;-4.50;90.80;;;;;;5002166;28;20038;-88
2022/01/04 10:35:54;;;;;;;71.13;36.33;;;-4.60;90.80;;;;;;4999359;28;20018;-87
2022/01/04 10:38:27;;;;;;;41.50;22.92;;;-4.60;90.80;;;;;;4995113;28;20029;-85
2022/01/04 10:41:29;;;;;;;52.80;25.30;;;-4.50;91.00;;;;;;4997457;28;20060;-87
2022/01/04 10:43:59;;;;;;;37.35;19.85;;;-4.60;90.80;;;;;;4997669;28;20046;-86
2022/01/04 10:46:32;;;;;;;37.42;20.13;;;-4.80;90.70;;;;;;4998488;28;20459;-87
2022/01/04 10:48:59;;;;;;;36.05;17.58;;;-5.00;90.80;;;;;;4997719;28;20034;-88
2022/01/04 10:51:48;;;;;;;35.53;18.33;;;-5.10;91.10;;;;;;5006897;28;20109;-89
2022/01/04 10:54:38;;;;;;;39.22;19.73;;;-5.10;91.40;;;;;;4985920;28;20039;-89
2022/01/04 10:57:05;;;;;;;43.25;22.48;;;-4.90;91.50;;;;;;4993538;28;20061;-88
2022/01/04 10:59:31;;;;;;;36.95;19.25;;;-4.80;91.30;;;;;;5007074;28;20082;-90
2022/01/04 11:02:00;;;;;;;32.55;16.83;;;-4.80;91.20;;;;;;5016613;28;20037;-89
2022/01/04 11:05:12;;;;;;;34.17;17.50;;;-4.80;91.20;;;;;;5013129;28;20030;-85
2022/01/04 11:11:57;;;;;;;34.35;15.45;;;-4.70;91.20;;;;;;4975137;28;20058;-92
2022/01/04 11:14:29;;;;;;;30.55;16.65;;;-4.50;91.20;;;;;;4962543;28;20101;-88
2022/01/04 11:17:38;;;;;;;29.77;15.93;;;-4.40;91.20;;;;;;5020296;28;20033;-91
2022/01/04 11:20:54;;;;;;;29.02;13.30;;;-4.50;90.60;;;;;;5008432;28;20046;-93
2022/01/04 11:23:02;;;;;;;28.60;15.45;;;-4.60;90.60;;;;;;5002007;28;20092;-90
2022/01/04 11:25:29;;;;;;;30.87;15.93;;;-4.70;90.80;;;;;;4987556;28;20023;-90
2022/01/04 11:28:00;;;;;;;27.25;15.68;;;-4.70;90.90;;;;;;4983712;28;20351;-87
2022/01/04 11:30:48;;;;;;;30.67;15.70;;;-4.70;91.00;;;;;;4999836;28;20049;-86
2022/01/04 11:33:44;;;;;;;34.15;17.55;;;-4.70;91.10;;;;;;5003038;28;20030;-89
2022/01/04 11:36:14;;;;;;;34.45;18.60;;;-4.60;91.20;;;;;;4986085;28;20043;-89
2022/01/04 11:38:40;;;;;;;34.50;17.33;;;-4.50;91.20;;;;;;5018357;28;20490;-85
2022/01/04 11:41:19;;;;;;;34.38;19.15;;;-4.40;91.20;;;;;;5002726;28;20406;-86
2022/01/04 11:43:45;;;;;;;41.60;20.50;;;-4.40;91.10;;;;;;5000358;28;20049;-87
2022/01/04 11:46:37;;;;;;;33.55;20.50;;;-4.40;91.20;;;;;;5016535;28;20060;-84
2022/01/04 11:49:13;;;;;;;37.70;18.02;;;-4.20;91.10;;;;;;4960280;28;20396;-85
2022/01/04 11:51:44;;;;;;;37.08;19.80;;;-4.20;90.90;;;;;;4974941;28;20023;-84
2022/01/04 11:54:26;;;;;;;38.10;18.98;;;-4.40;90.80;;;;;;4958645;28;20050;-85
2022/01/04 11:57:05;;;;;;;36.05;17.85;;;-4.70;91.30;;;;;;4958293;28;20039;-84
2022/01/04 11:59:43;;;;;;;32.55;18.75;;;-4.90;91.70;;;;;;4960320;29;20461;-89
2022/01/04 12:02:48;;;;;;;35.08;16.67;;;-4.90;92.10;;;;;;4962350;28;20041;-86
2022/01/04 12:05:24;;;;;;;40.22;20.05;;;-4.90;92.20;;;;;;4961843;28;20019;-89
2022/01/04 12:07:59;;;;;;;43.88;19.25;;;-5.00;92.20;;;;;;4966268;28;20027;-88
2022/01/04 12:10:52;;;;;;;37.13;16.67;;;-5.00;92.30;;;;;;4975391;28;20016;-88
2022/01/04 12:13:21;;;;;;;30.63;20.05;;;-5.00;92.50;;;;;;4965033;28;20124;-88
2022/01/04 12:16:05;;;;;;;34.47;17.88;;;-5.00;92.60;;;;;;4981141;28;20019;-92
2022/01/04 12:18:37;;;;;;;33.65;17.48;;;-5.00;92.50;;;;;;4978588;28;20023;-85
2022/01/04 12:21:13;;;;;;;38.42;16.48;;;-5.00;92.40;;;;;;4967309;28;20044;-88
2022/01/04 12:23:39;;;;;;;33.08;19.75;;;-5.10;92.50;;;;;;4975747;28;20043;-86
2022/01/04 12:26:11;;;;;;;29.55;16.30;;;-5.10;92.60;;;;;;4967225;29;20030;-87
2022/01/04 12:28:42;;;;;;;37.08;17.08;;;-5.10;92.50;;;;;;4962498;28;20027;-87
2022/01/04 12:31:22;;;;;;;29.52;15.68;;;-5.20;92.70;;;;;;4963340;28;20023;-87
2022/01/04 12:33:52;;;;;;;33.65;18.08;;;-5.20;92.70;;;;;;4960851;28;20031;-89
2022/01/04 12:36:33;;;;;;;29.63;17.70;;;-5.20;92.80;;;;;;4961786;28;20028;-89
2022/01/04 12:39:07;;;;;;;34.50;18.95;;;-5.20;92.80;;;;;;4961820;28;20027;-89
2022/01/04 12:41:41;;;;;;;32.80;17.55;;;-5.30;92.90;;;;;;4991759;28;20106;-87
2022/01/04 12:44:15;;;;;;;31.10;18.77;;;-5.30;93.00;;;;;;5011488;28;20062;-88
2022/01/04 12:46:45;;;;;;;32.63;19.05;;;-5.40;93.00;;;;;;5002202;28;20372;-87
2022/01/04 12:49:14;;;;;;;40.28;19.23;;;-5.40;93.20;;;;;;4997356;28;20046;-84
2022/01/04 12:51:54;;;;;;;31.90;16.05;;;-5.40;93.30;;;;;;5001232;28;20377;-91
2022/01/04 12:54:32;;;;;;;32.67;17.60;;;-5.30;93.40;;;;;;5008772;28;20029;-89